Time;durP1;ratioP1;P1;durP2;ratioP2;P2;SDS_P1;SDS_P2;PMS_P1;PMS_P2;Temp;Humidity;BMP_temperature;BMP_pressure;BME280_temperature;BME280_humidity;BME280_pressure;Samples;Min_cycle;Max_cycle;Signal;HPM_P1;HPM_P2
2023/11/10 00:00:12;;;;;;;2.10;1.90;;;6.40;99.90;;;;;;4992670;28;20097;-82
2023/11/10 00:02:42;;;;;;;3.75;2.00;;;6.40;99.90;;;;;;5010095;28;20571;-80
2023/11/10 00:05:09;;;;;;;1.92;1.80;;;6.50;99.90;;;;;;5002399;28;20030;-80
2023/11/10 00:07:35;;;;;;;2.40;2.00;;;6.50;99.90;;;;;;5011357;28;20040;-81
2023/11/10 00:10:04;;;;;;;4.57;1.88;;;6.50;99.90;;;;;;5016254;28;20045;-81
2023/11/10 00:12:31;;;;;;;3.03;1.70;;;6.50;99.90;;;;;;5010355;28;20398;-80
2023/11/10 00:14:57;;;;;;;3.63;1.67;;;6.50;99.90;;;;;;5010646;28;20056;-81
2023/11/10 00:17:23;;;;;;;5.38;1.70;;;6.50;99.90;;;;;;5012453;28;20065;-79
2023/11/10 00:19:49;;;;;;;2.33;2.13;;;6.50;99.90;;;;;;5010272;28;20052;-80
2023/11/10 00:22:15;;;;;;;2.65;2.38;;;6.50;99.90;;;;;;5011450;28;20033;-81
2023/11/10 00:24:45;;;;;;;2.40;2.17;;;6.50;99.90;;;;;;5003369;28;20037;-83
2023/11/10 00:27:14;;;;;;;2.75;2.00;;;6.60;99.90;;;;;;5010782;28;20049;-81
2023/11/10 00:29:44;;;;;;;2.40;2.20;;;6.60;99.90;;;;;;5011341;28;20037;-82
2023/11/10 00:32:11;;;;;;;2.63;2.10;;;6.60;99.90;;;;;;5009309;28;20026;-83
2023/11/10 00:34:38;;;;;;;5.22;2.03;;;6.60;99.90;;;;;;5017872;28;20108;-82
2023/11/10 00:37:04;;;;;;;2.95;2.33;;;6.60;99.90;;;;;;5014685;28;20052;-83
2023/11/10 00:39:30;;;;;;;2.97;2.10;;;6.60;99.90;;;;;;5015709;28;20120;-83
2023/11/10 00:41:59;;;;;;;3.22;2.50;;;6.60;99.90;;;;;;5007743;28;20094;-82
2023/11/10 00:44:27;;;;;;;3.08;2.40;;;6.60;99.90;;;;;;5012528;28;20034;-83
2023/11/10 00:46:53;;;;;;;3.85;2.20;;;6.60;99.90;;;;;;4985019;28;20197;-83
2023/11/10 00:49:21;;;;;;;2.65;2.10;;;6.60;99.90;;;;;;5024132;28;20069;-83
2023/11/10 00:51:48;;;;;;;3.78;2.15;;;6.60;99.90;;;;;;5011217;28;20022;-83
2023/11/10 00:54:16;;;;;;;2.47;2.28;;;6.60;99.90;;;;;;5008275;28;20021;-82
2023/11/10 00:56:42;;;;;;;2.63;2.42;;;6.60;99.90;;;;;;5011575;28;20029;-82
2023/11/10 00:59:07;;;;;;;2.45;2.25;;;6.60;99.90;;;;;;4996990;28;20057;-81
2023/11/10 01:01:35;;;;;;;2.00;1.80;;;6.60;99.90;;;;;;5013260;28;20327;-82
2023/11/10 01:04:01;;;;;;;2.05;1.83;;;6.60;99.90;;;;;;5014288;28;20027;-83
2023/11/10 01:06:28;;;;;;;2.30;2.10;;;6.60;99.90;;;;;;5009479;28;20037;-83
2023/11/10 01:08:54;;;;;;;2.70;2.10;;;6.50;99.90;;;;;;5006392;28;20034;-81
2023/11/10 01:11:20;;;;;;;3.60;2.00;;;6.60;99.90;;;;;;5010578;28;20033;-80
2023/11/10 01:13:46;;;;;;;2.58;1.98;;;6.60;99.90;;;;;;5009637;28;20416;-80
2023/11/10 01:16:12;;;;;;;2.45;1.90;;;6.50;99.90;;;;;;5000906;28;20122;-81
2023/11/10 01:18:38;;;;;;;3.20;2.25;;;6.60;99.90;;;;;;5011416;28;20065;-81
2023/11/10 01:21:04;;;;;;;3.15;2.20;;;6.60;99.90;;;;;;5008637;28;20038;-82
2023/11/10 01:23:30;;;;;;;4.22;2.28;;;6.60;99.90;;;;;;5011264;28;20386;-81
2023/11/10 01:25:56;;;;;;;2.47;2.20;;;6.60;99.90;;;;;;5009099;28;20034;-80
2023/11/10 01:28:22;;;;;;;3.28;2.15;;;6.60;99.90;;;;;;4995581;28;20038;-80
2023/11/10 01:30:48;;;;;;;3.10;2.60;;;6.60;99.90;;;;;;5008417;28;20633;-80
2023/11/10 01:33:13;;;;;;;2.45;2.20;;;6.60;99.90;;;;;;5005491;28;21362;-80
2023/11/10 01:35:41;;;;;;;3.33;2.33;;;6.60;99.90;;;;;;5010011;28;20018;-81
2023/11/10 01:38:08;;;;;;;3.90;2.38;;;6.60;99.90;;;;;;5007059;28;20041;-81
2023/11/10 01:40:38;;;;;;;4.28;2.10;;;6.70;99.90;;;;;;5009763;28;20450;-83
2023/11/10 01:43:08;;;;;;;3.40;2.17;;;6.70;99.90;;;;;;5000869;28;20068;-81
2023/11/10 01:45:34;;;;;;;4.10;2.08;;;6.70;99.90;;;;;;5011887;28;20026;-80
2023/11/10 01:48:00;;;;;;;3.03;2.05;;;6.70;99.90;;;;;;4992161;28;20045;-81
2023/11/10 01:50:28;;;;;;;2.70;2.47;;;6.70;99.90;;;;;;4998181;28;20041;-80
2023/11/10 01:52:54;;;;;;;2.35;1.95;;;6.70;99.90;;;;;;5005113;28;20044;-80
2023/11/10 01:55:20;;;;;;;3.60;2.40;;;6.70;99.90;;;;;;5006123;28;20030;-81
2023/11/10 01:57:49;;;;;;;5.07;2.30;;;6.70;99.90;;;;;;5004934;28;20243;-82
2023/11/10 02:00:19;;;;;;;4.00;2.38;;;6.70;99.90;;;;;;4998972;28;20459;-81
2023/11/10 02:02:46;;;;;;;2.35;2.15;;;6.70;99.90;;;;;;5005308;28;20129;-80
2023/11/10 02:05:12;;;;;;;2.50;2.08;;;6.70;99.90;;;;;;5006835;28;20708;-80
2023/11/10 02:07:39;;;;;;;2.50;2.30;;;6.70;99.90;;;;;;5006938;28;20026;-83
2023/11/10 02:10:05;;;;;;;1.98;1.83;;;6.70;99.90;;;;;;5012209;28;20509;-81
2023/11/10 02:12:31;;;;;;;3.20;2.50;;;6.70;99.90;;;;;;5007250;28;20026;-83
2023/11/10 02:14:57;;;;;;;2.67;2.22;;;6.70;99.90;;;;;;4974797;28;20032;-81
2023/11/10 02:17:22;;;;;;;3.55;2.17;;;6.70;99.90;;;;;;4998884;28;20030;-81
2023/11/10 02:19:48;;;;;;;2.58;1.98;;;6.70;99.90;;;;;;4991580;28;20034;-80
2023/11/10 02:22:14;;;;;;;2.45;2.00;;;6.70;99.90;;;;;;4992600;28;20323;-81
2023/11/10 02:24:41;;;;;;;4.20;2.28;;;6.70;99.90;;;;;;5006455;28;20121;-81
2023/11/10 02:27:07;;;;;;;2.58;1.90;;;6.70;99.90;;;;;;5010047;28;20346;-81
2023/11/10 02:29:40;;;;;;;2.83;2.00;;;6.70;99.90;;;;;;5014610;28;20121;-81
2023/11/10 02:32:06;;;;;;;2.92;2.30;;;6.60;99.90;;;;;;4996403;28;20088;-82
2023/11/10 02:34:32;;;;;;;2.75;2.33;;;6.70;99.90;;;;;;5008451;28;20038;-82
2023/11/10 02:36:57;;;;;;;2.38;1.73;;;6.60;99.90;;;;;;5002860;28;20144;-83
2023/11/10 02:39:24;;;;;;;2.20;2.00;;;6.60;99.90;;;;;;5008229;28;20567;-84
2023/11/10 02:41:53;;;;;;;2.28;1.85;;;6.60;99.90;;;;;;5005114;28;20042;-80
2023/11/10 02:44:19;;;;;;;2.30;1.90;;;6.60;99.90;;;;;;5015285;28;20100;-82
2023/11/10 02:46:44;;;;;;;4.82;2.38;;;6.60;99.90;;;;;;5018609;28;20034;-81
2023/11/10 02:49:10;;;;;;;2.38;2.17;;;6.60;99.90;;;;;;5006407;28;20053;-81
2023/11/10 02:51:36;;;;;;;2.90;2.47;;;6.60;99.90;;;;;;5008542;28;20100;-80
2023/11/10 02:54:03;;;;;;;2.70;2.22;;;6.60;99.90;;;;;;4986540;28;20054;-82
2023/11/10 02:56:29;;;;;;;3.13;2.80;;;6.60;99.90;;;;;;5014667;28;20019;-80
2023/11/10 02:58:55;;;;;;;3.47;2.75;;;6.60;99.90;;;;;;4990830;28;20038;-80
2023/11/10 03:01:23;;;;;;;3.03;2.72;;;6.60;99.90;;;;;;5016641;28;20040;-80
2023/11/10 03:03:50;;;;;;;4.75;3.17;;;6.60;99.90;;;;;;5010402;28;20038;-82
2023/11/10 03:06:16;;;;;;;3.83;3.20;;;6.60;99.90;;;;;;5014723;28;20041;-82
2023/11/10 03:08:42;;;;;;;2.95;2.60;;;6.60;99.90;;;;;;4998469;28;20055;-82
2023/11/10 03:11:07;;;;;;;2.83;2.40;;;6.60;99.90;;;;;;4996388;28;20030;-81
2023/11/10 03:13:34;;;;;;;3.35;2.70;;;6.60;99.90;;;;;;5010010;28;20057;-81
2023/11/10 03:16:00;;;;;;;3.33;2.97;;;6.60;99.90;;;;;;5008615;28;20045;-80
2023/11/10 03:18:26;;;;;;;6.55;3.40;;;6.60;99.90;;;;;;5009199;28;20113;-81
2023/11/10 03:20:51;;;;;;;3.92;3.47;;;6.60;99.90;;;;;;5002490;28;20042;-81
2023/11/10 03:23:17;;;;;;;3.65;3.05;;;6.60;99.90;;;;;;5009110;28;20085;-82
2023/11/10 03:25:43;;;;;;;4.30;3.90;;;6.60;99.90;;;;;;5000696;28;20037;-82
2023/11/10 03:28:09;;;;;;;4.53;3.83;;;6.60;99.90;;;;;;5005405;28;20026;-81
2023/11/10 03:30:34;;;;;;;4.03;3.58;;;6.60;99.90;;;;;;5012157;28;20148;-82
2023/11/10 03:33:00;;;;;;;4.43;3.88;;;6.50;99.90;;;;;;5019311;28;20026;-81
2023/11/10 03:35:26;;;;;;;5.80;3.72;;;6.50;99.90;;;;;;4979509;28;20037;-81
2023/11/10 03:37:52;;;;;;;5.97;4.22;;;6.60;99.90;;;;;;5016340;28;20101;-81
2023/11/10 03:40:20;;;;;;;5.25;3.92;;;6.60;99.90;;;;;;5012443;28;20029;-81
2023/11/10 03:43:04;;;;;;;5.80;3.95;;;6.60;99.90;;;;;;5011875;28;20072;-80
2023/11/10 03:45:30;;;;;;;10.07;4.55;;;6.60;99.90;;;;;;5022478;28;20049;-81
2023/11/10 03:47:56;;;;;;;6.80;4.22;;;6.60;99.90;;;;;;5009765;28;20034;-81
2023/11/10 03:50:22;;;;;;;3.78;3.40;;;6.60;99.90;;;;;;5019810;28;20037;-82
2023/11/10 03:52:47;;;;;;;5.95;4.05;;;6.60;99.90;;;;;;5011760;28;20044;-83
2023/11/10 03:55:13;;;;;;;4.68;3.72;;;6.50;99.90;;;;;;5016821;28;20098;-83
2023/11/10 03:57:39;;;;;;;9.18;4.38;;;6.50;99.90;;;;;;5006667;28;20034;-82
2023/11/10 04:00:07;;;;;;;5.25;4.45;;;6.50;99.90;;;;;;5013186;28;20109;-82
2023/11/10 04:02:34;;;;;;;8.00;4.80;;;6.50;99.90;;;;;;5003507;28;20033;-83
2023/11/10 04:04:59;;;;;;;5.38;4.70;;;6.40;99.90;;;;;;5016742;28;20041;-82
2023/11/10 04:07:25;;;;;;;6.82;5.00;;;6.40;99.90;;;;;;5019017;28;20049;-82
2023/11/10 04:09:51;;;;;;;6.30;5.00;;;6.40;99.90;;;;;;5009997;28;20045;-81
2023/11/10 04:12:17;;;;;;;5.05;4.32;;;6.40;99.90;;;;;;5003047;28;20034;-82
2023/11/10 04:14:42;;;;;;;6.15;4.35;;;6.40;99.90;;;;;;5021744;28;20029;-81
2023/11/10 04:17:08;;;;;;;6.90;5.28;;;6.40;99.90;;;;;;5006268;28;20394;-82
2023/11/10 04:19:34;;;;;;;5.32;4.32;;;6.40;99.90;;;;;;5018304;28;20037;-82
2023/11/10 04:22:00;;;;;;;9.15;4.88;;;6.40;99.90;;;;;;4988557;28;20041;-80
2023/11/10 04:24:26;;;;;;;7.18;5.68;;;6.40;99.90;;;;;;5018015;28;20058;-82
2023/11/10 04:26:52;;;;;;;7.68;5.00;;;6.40;99.90;;;;;;5020005;28;20034;-82
2023/11/10 04:29:17;;;;;;;8.60;5.18;;;6.40;99.90;;;;;;5020828;28;20103;-82
2023/11/10 04:31:43;;;;;;;7.80;5.70;;;6.40;99.90;;;;;;5017855;28;20026;-83
2023/11/10 04:34:09;;;;;;;7.28;5.45;;;6.40;99.90;;;;;;5007651;28;20031;-82
2023/11/10 04:36:39;;;;;;;6.88;5.55;;;6.40;99.90;;;;;;5009931;28;20034;-82
2023/11/10 04:39:05;;;;;;;7.75;5.45;;;6.40;99.90;;;;;;5016375;28;20449;-80
2023/11/10 04:41:32;;;;;;;8.35;5.50;;;6.40;99.90;;;;;;5015609;28;20042;-81
2023/11/10 04:44:00;;;;;;;8.95;5.43;;;6.40;99.90;;;;;;5015026;28;20088;-83
2023/11/10 04:46:26;;;;;;;7.32;5.38;;;6.40;99.90;;;;;;5011851;28;20037;-81
2023/11/10 04:48:51;;;;;;;7.10;5.60;;;6.40;99.90;;;;;;5024362;28;20038;-82
2023/11/10 04:51:17;;;;;;;8.18;5.38;;;6.40;99.90;;;;;;5019711;28;20034;-80
2023/11/10 04:53:43;;;;;;;6.63;5.00;;;6.40;99.90;;;;;;5018473;28;20541;-83
2023/11/10 04:56:08;;;;;;;7.53;5.78;;;6.50;99.90;;;;;;5017448;28;20090;-81
2023/11/10 04:58:34;;;;;;;10.50;6.03;;;6.40;99.90;;;;;;5011554;28;20042;-81
2023/11/10 05:01:00;;;;;;;6.50;4.82;;;6.50;99.90;;;;;;5010779;28;20038;-80
2023/11/10 05:03:26;;;;;;;7.93;5.50;;;6.40;99.90;;;;;;5009567;28;20053;-82
2023/11/10 05:05:52;;;;;;;8.52;5.60;;;6.50;99.90;;;;;;5010876;28;20480;-82
2023/11/10 05:08:17;;;;;;;6.88;5.30;;;6.50;99.90;;;;;;5011101;28;20038;-82
2023/11/10 05:10:45;;;;;;;8.05;5.07;;;6.50;99.90;;;;;;5017897;28;20364;-80
2023/11/10 05:13:11;;;;;;;7.60;5.68;;;6.40;99.90;;;;;;5009206;28;20076;-81
2023/11/10 05:15:38;;;;;;;10.30;5.20;;;6.40;99.90;;;;;;5009285;28;20025;-82
2023/11/10 05:18:04;;;;;;;7.20;5.20;;;6.40;99.90;;;;;;5010175;28;20038;-83
2023/11/10 05:20:31;;;;;;;10.23;4.82;;;6.40;99.90;;;;;;5014921;28;20037;-81
2023/11/10 05:22:57;;;;;;;8.10;5.45;;;6.40;99.90;;;;;;5006836;28;20062;-83
2023/11/10 05:25:24;;;;;;;6.68;4.60;;;6.40;99.90;;;;;;5021161;28;20480;-81
2023/11/10 05:27:50;;;;;;;6.97;4.30;;;6.40;99.90;;;;;;5018945;28;20107;-81
2023/11/10 05:30:16;;;;;;;6.45;5.10;;;6.40;99.90;;;;;;5020554;28;20565;-82
2023/11/10 05:32:41;;;;;;;7.35;4.90;;;6.40;99.90;;;;;;5000112;28;20048;-81
2023/11/10 05:35:08;;;;;;;10.20;5.15;;;6.40;99.90;;;;;;5011926;28;20033;-81
2023/11/10 05:37:34;;;;;;;6.38;4.70;;;6.40;99.90;;;;;;4980985;28;20509;-81
2023/11/10 05:40:01;;;;;;;6.28;4.45;;;6.40;99.90;;;;;;5013656;28;20034;-82
2023/11/10 05:42:26;;;;;;;6.15;4.55;;;6.40;99.90;;;;;;5008288;28;20379;-81
2023/11/10 05:44:53;;;;;;;7.88;5.07;;;6.40;99.90;;;;;;4998835;28;20044;-81
2023/11/10 05:47:19;;;;;;;5.38;4.55;;;6.40;99.90;;;;;;4984572;28;20038;-82
2023/11/10 05:49:45;;;;;;;8.93;5.05;;;6.40;99.90;;;;;;5022785;28;20033;-82
2023/11/10 05:52:12;;;;;;;7.05;4.80;;;6.40;99.90;;;;;;5012388;28;20053;-81
2023/11/10 05:54:38;;;;;;;7.00;5.45;;;6.40;99.90;;;;;;5018017;28;20108;-83
2023/11/10 05:57:04;;;;;;;7.07;5.50;;;6.40;99.90;;;;;;5011841;28;20022;-81
2023/11/10 05:59:30;;;;;;;8.90;5.38;;;6.40;99.90;;;;;;5018480;28;20076;-81
2023/11/10 06:01:56;;;;;;;7.45;5.60;;;6.40;99.90;;;;;;5009744;28;20410;-81
2023/11/10 06:04:23;;;;;;;8.27;6.10;;;6.50;99.90;;;;;;5016290;28;20102;-81
2023/11/10 06:06:49;;;;;;;8.73;5.68;;;6.50;99.90;;;;;;5007244;28;20053;-81
2023/11/10 06:09:16;;;;;;;9.13;6.15;;;6.40;99.90;;;;;;5013983;28;20709;-82
2023/11/10 06:11:44;;;;;;;8.88;5.40;;;6.40;99.90;;;;;;5008447;28;20034;-81
2023/11/10 06:14:10;;;;;;;10.63;6.00;;;6.40;99.90;;;;;;5018623;28;20033;-82
2023/11/10 06:16:42;;;;;;;8.57;6.00;;;6.40;99.90;;;;;;5009512;28;20030;-81
2023/11/10 06:19:08;;;;;;;9.52;5.95;;;6.50;99.90;;;;;;5013715;28;20106;-81
2023/11/10 06:21:34;;;;;;;7.95;6.00;;;6.50;99.90;;;;;;5013478;28;20092;-82
2023/11/10 06:24:01;;;;;;;9.90;6.47;;;6.40;99.90;;;;;;5005260;28;20037;-82
2023/11/10 06:26:28;;;;;;;10.13;6.13;;;6.50;99.90;;;;;;5018422;28;20034;-80
2023/11/10 06:28:54;;;;;;;10.10;6.13;;;6.50;99.90;;;;;;5013022;28;20053;-82
2023/11/10 06:31:20;;;;;;;8.13;6.28;;;6.50;99.90;;;;;;5009612;28;20038;-80
2023/11/10 06:33:48;;;;;;;12.80;7.00;;;6.50;99.90;;;;;;5006071;28;20521;-81
2023/11/10 06:36:18;;;;;;;9.90;6.00;;;6.50;99.90;;;;;;5014944;28;20529;-81
2023/11/10 06:38:44;;;;;;;8.65;5.57;;;6.50;99.90;;;;;;5017827;28;20030;-82
2023/11/10 06:41:10;;;;;;;7.55;5.93;;;6.50;99.90;;;;;;5005739;28;20049;-79
2023/11/10 06:43:45;;;;;;;6.70;5.28;;;6.50;99.90;;;;;;5007669;28;20538;-82
2023/11/10 06:46:22;;;;;;;9.23;5.45;;;6.50;99.90;;;;;;5006489;28;20044;-81
2023/11/10 06:48:53;;;;;;;7.95;5.65;;;6.50;99.90;;;;;;4993547;28;20372;-82
2023/11/10 06:51:19;;;;;;;8.07;5.50;;;6.50;99.90;;;;;;5015691;28;20045;-82
2023/11/10 06:53:45;;;;;;;8.73;4.82;;;6.50;99.90;;;;;;5005831;28;20018;-80
2023/11/10 06:56:11;;;;;;;14.27;5.15;;;6.50;99.90;;;;;;5005884;28;20033;-81
2023/11/10 06:58:37;;;;;;;6.35;5.07;;;6.50;99.90;;;;;;5002583;28;20065;-81
2023/11/10 07:01:07;;;;;;;8.70;4.88;;;6.50;99.90;;;;;;5011528;28;20122;-81
2023/11/10 07:03:33;;;;;;;6.80;4.80;;;6.50;99.90;;;;;;5007346;28;20041;-81
2023/11/10 07:06:00;;;;;;;7.80;4.75;;;6.50;99.90;;;;;;5000827;28;20129;-82
2023/11/10 07:08:27;;;;;;;5.25;4.25;;;6.50;99.90;;;;;;4990297;28;20077;-80
2023/11/10 07:10:57;;;;;;;5.53;4.20;;;6.50;99.90;;;;;;5004636;28;20049;-82
2023/11/10 07:13:23;;;;;;;8.40;4.15;;;6.50;99.90;;;;;;5017476;28;20041;-81
2023/11/10 07:15:50;;;;;;;7.40;4.25;;;6.50;99.90;;;;;;5009226;28;20376;-80
2023/11/10 07:18:17;;;;;;;3.95;3.30;;;6.50;99.90;;;;;;5012638;28;20088;-81
2023/11/10 07:20:44;;;;;;;6.22;3.83;;;6.60;99.90;;;;;;5004710;28;20042;-82
2023/11/10 07:23:11;;;;;;;4.65;3.72;;;6.60;99.90;;;;;;5010465;28;20038;-81
2023/11/10 07:25:37;;;;;;;8.85;3.97;;;6.60;99.90;;;;;;5003125;28;20030;-82
2023/11/10 07:28:03;;;;;;;4.32;3.20;;;6.60;99.90;;;;;;5018293;28;20026;-81
2023/11/10 07:30:29;;;;;;;5.45;3.50;;;6.60;99.90;;;;;;4997529;28;20037;-84
2023/11/10 07:32:55;;;;;;;6.05;3.70;;;6.70;99.90;;;;;;5012005;28;20030;-82
2023/11/10 07:35:21;;;;;;;3.95;2.90;;;6.70;99.90;;;;;;5013056;28;20057;-82
2023/11/10 07:37:48;;;;;;;4.28;3.42;;;6.70;99.90;;;;;;5008254;28;20065;-81
2023/11/10 07:40:15;;;;;;;4.40;2.88;;;6.80;99.90;;;;;;5016338;28;20025;-80
2023/11/10 07:42:45;;;;;;;3.92;3.05;;;6.80;99.90;;;;;;5015128;28;20038;-81
2023/11/10 07:45:15;;;;;;;4.90;3.10;;;6.80;99.90;;;;;;5006027;28;20056;-81
2023/11/10 07:47:42;;;;;;;4.70;3.20;;;6.90;99.90;;;;;;5010695;28;20068;-80
2023/11/10 07:50:09;;;;;;;4.80;3.25;;;6.90;99.90;;;;;;5000796;28;20470;-83
2023/11/10 07:52:39;;;;;;;5.55;2.88;;;6.90;99.90;;;;;;5009925;28;20030;-80
2023/11/10 07:55:06;;;;;;;4.97;3.47;;;6.90;99.90;;;;;;5008584;28;20030;-80
2023/11/10 07:57:32;;;;;;;4.55;3.42;;;6.90;99.90;;;;;;5011251;28;20029;-81
2023/11/10 07:59:59;;;;;;;4.85;3.67;;;6.90;99.90;;;;;;5014320;28;20045;-80
2023/11/10 08:02:25;;;;;;;6.60;3.90;;;7.00;99.90;;;;;;5012498;28;20030;-79
2023/11/10 08:04:52;;;;;;;4.40;3.60;;;7.00;99.90;;;;;;5009968;28;20026;-80
2023/11/10 08:07:18;;;;;;;7.75;2.85;;;7.00;99.90;;;;;;5013387;28;20113;-80
2023/11/10 08:09:44;;;;;;;3.95;3.30;;;7.10;99.90;;;;;;5018821;28;20115;-80
2023/11/10 08:12:10;;;;;;;4.13;3.20;;;7.10;99.90;;;;;;5009072;28;20041;-82
2023/11/10 08:14:36;;;;;;;5.50;3.20;;;7.20;99.90;;;;;;5006422;28;20030;-80
2023/11/10 08:17:06;;;;;;;3.97;3.15;;;7.20;99.90;;;;;;5014716;28;20018;-80
2023/11/10 08:19:32;;;;;;;4.90;3.35;;;7.20;99.90;;;;;;5006603;28;20042;-81
2023/11/10 08:22:00;;;;;;;3.72;3.05;;;7.30;99.90;;;;;;5002456;28;20157;-79
2023/11/10 08:24:26;;;;;;;4.22;3.17;;;7.30;99.90;;;;;;5003436;28;20037;-80
2023/11/10 08:26:53;;;;;;;3.95;2.70;;;7.30;99.90;;;;;;5010563;28;20030;-82
2023/11/10 08:29:20;;;;;;;3.58;2.95;;;7.20;99.90;;;;;;5008935;28;20437;-79
2023/11/10 08:31:48;;;;;;;3.75;3.00;;;7.20;99.90;;;;;;5013666;28;20017;-81
2023/11/10 08:34:13;;;;;;;4.10;3.10;;;7.20;99.90;;;;;;5007420;28;20014;-82
2023/11/10 08:36:40;;;;;;;4.38;3.00;;;7.20;99.90;;;;;;5009379;28;20046;-82
2023/11/10 08:39:06;;;;;;;3.63;3.03;;;7.20;99.90;;;;;;5008210;28;20692;-81
2023/11/10 08:41:32;;;;;;;3.72;3.25;;;7.20;99.90;;;;;;5005325;28;20030;-82
2023/11/10 08:43:58;;;;;;;6.70;2.85;;;7.10;99.90;;;;;;5008173;28;21181;-83
2023/11/10 08:46:24;;;;;;;3.47;2.80;;;7.10;99.90;;;;;;5002707;28;20034;-82
2023/11/10 08:48:50;;;;;;;3.42;2.50;;;7.10;99.90;;;;;;4998131;28;20398;-80
2023/11/10 08:51:40;;;;;;;4.60;3.10;;;7.20;99.90;;;;;;5002279;28;20047;-81
2023/11/10 08:54:05;;;;;;;3.58;2.70;;;7.20;99.90;;;;;;5011512;28;20041;-80
2023/11/10 08:56:31;;;;;;;3.50;2.80;;;7.30;99.90;;;;;;5008963;28;20042;-81
2023/11/10 08:58:57;;;;;;;4.45;2.72;;;7.30;99.90;;;;;;5012140;28;20097;-82
2023/11/10 09:01:23;;;;;;;4.28;2.38;;;7.40;99.90;;;;;;5004980;28;20065;-81
2023/11/10 09:03:49;;;;;;;9.07;2.55;;;7.40;99.90;;;;;;5003461;28;20037;-81
2023/11/10 09:06:15;;;;;;;3.10;2.47;;;7.50;99.90;;;;;;5003254;28;20707;-81
2023/11/10 09:08:41;;;;;;;3.25;2.85;;;7.60;99.90;;;;;;5005315;28;20113;-79
2023/11/10 09:11:07;;;;;;;3.38;2.30;;;7.70;99.90;;;;;;5011081;28;20041;-79
2023/11/10 09:13:33;;;;;;;3.53;2.05;;;7.70;99.90;;;;;;5007403;28;20226;-81
2023/11/10 09:15:59;;;;;;;4.00;1.80;;;7.70;99.90;;;;;;5004843;28;20034;-81
2023/11/10 09:18:27;;;;;;;3.25;2.22;;;7.60;99.90;;;;;;5007474;28;20041;-80
2023/11/10 09:20:53;;;;;;;2.28;1.58;;;7.60;99.90;;;;;;5011227;28;20030;-81
2023/11/10 09:23:19;;;;;;;3.80;2.03;;;7.60;99.90;;;;;;5009018;28;20048;-80
2023/11/10 09:25:44;;;;;;;2.33;1.60;;;7.50;99.90;;;;;;5012686;28;20022;-80
2023/11/10 09:28:11;;;;;;;2.70;1.85;;;7.50;99.90;;;;;;5011753;28;20560;-82
2023/11/10 09:30:37;;;;;;;2.33;1.60;;;7.50;99.90;;;;;;5010721;28;20025;-80
2023/11/10 09:33:03;;;;;;;6.00;2.35;;;7.50;99.90;;;;;;5002607;28;20393;-78
2023/11/10 09:35:29;;;;;;;1.77;1.67;;;7.50;99.90;;;;;;5007667;28;20044;-81
2023/11/10 09:37:56;;;;;;;1.40;1.30;;;7.50;99.90;;;;;;5005868;28;20029;-78
2023/11/10 09:40:23;;;;;;;2.63;1.67;;;7.50;99.90;;;;;;5005986;28;20066;-79
2023/11/10 09:42:49;;;;;;;2.75;1.50;;;7.50;99.90;;;;;;5005444;28;20022;-80
2023/11/10 09:45:16;;;;;;;7.03;1.70;;;7.40;99.90;;;;;;4999438;28;20240;-81
2023/11/10 09:47:44;;;;;;;1.85;1.40;;;7.50;99.90;;;;;;4997509;28;20479;-80
2023/11/10 09:50:13;;;;;;;3.50;1.30;;;7.50;99.90;;;;;;4999016;28;20098;-78
2023/11/10 09:52:40;;;;;;;3.45;1.55;;;7.40;99.90;;;;;;5010318;28;20033;-79
2023/11/10 09:55:07;;;;;;;2.55;1.30;;;7.40;99.90;;;;;;5004736;28;20157;-79
2023/11/10 09:57:33;;;;;;;1.38;1.27;;;7.40;99.90;;;;;;5002217;28;20030;-79
2023/11/10 09:59:59;;;;;;;4.57;1.60;;;7.40;99.90;;;;;;5002971;28;20037;-79
2023/11/10 10:02:24;;;;;;;3.35;1.45;;;7.40;99.90;;;;;;5005117;28;20113;-83
2023/11/10 10:04:50;;;;;;;3.30;1.70;;;7.40;99.90;;;;;;5006264;28;20033;-79
2023/11/10 10:07:17;;;;;;;2.15;1.30;;;7.50;99.90;;;;;;4999463;28;20057;-80
2023/11/10 10:09:45;;;;;;;2.40;1.33;;;7.60;99.90;;;;;;4999952;28;20028;-80
2023/11/10 10:12:12;;;;;;;3.00;1.45;;;7.60;99.90;;;;;;5004356;28;20038;-82
2023/11/10 10:14:56;;;;;;;3.53;1.63;;;7.60;99.90;;;;;;5004580;28;20056;-79
2023/11/10 10:17:39;;;;;;;4.05;1.50;;;7.60;99.90;;;;;;5002340;28;20116;-81
2023/11/10 10:20:14;;;;;;;1.25;1.10;;;7.60;99.90;;;;;;5006843;28;20030;-79
2023/11/10 10:22:43;;;;;;;;;;;7.60;99.90;;;;;;4999661;28;20049;-80
2023/11/10 10:25:10;;;;;;;1.65;1.25;;;7.60;99.90;;;;;;5005056;28;19913;-80
2023/11/10 10:27:37;;;;;;;2.58;1.10;;;7.60;99.90;;;;;;5001352;28;20038;-83
2023/11/10 10:30:03;;;;;;;2.58;1.20;;;7.50;99.90;;;;;;5004387;28;20112;-82
2023/11/10 10:32:29;;;;;;;3.10;1.38;;;7.50;99.90;;;;;;5001365;28;20058;-77
2023/11/10 10:34:54;;;;;;;2.15;1.00;;;7.50;99.90;;;;;;5013298;28;20616;-81
2023/11/10 10:37:21;;;;;;;1.08;0.98;;;7.50;99.90;;;;;;5012886;28;20038;-80
2023/11/10 10:39:48;;;;;;;1.90;1.30;;;7.50;99.90;;;;;;5010409;28;20132;-78
2023/11/10 10:42:16;;;;;;;1.98;1.60;;;7.40;99.90;;;;;;5005205;28;20034;-80
2023/11/10 10:44:45;;;;;;;4.50;1.10;;;7.40;99.90;;;;;;5005570;28;20117;-79
2023/11/10 10:47:12;;;;;;;1.52;0.68;;;7.50;99.90;;;;;;5005812;28;20029;-79
2023/11/10 10:49:40;;;;;;;1.10;1.00;;;7.50;99.90;;;;;;5003309;28;20400;-80
2023/11/10 10:52:07;;;;;;;2.90;1.15;;;7.50;99.90;;;;;;5006365;28;20037;-79
2023/11/10 10:54:35;;;;;;;1.10;1.00;;;7.40;99.90;;;;;;5005826;28;20027;-79
2023/11/10 10:57:04;;;;;;;2.65;1.20;;;7.50;99.90;;;;;;5009544;28;20030;-82
2023/11/10 10:59:30;;;;;;;1.35;1.02;;;7.50;99.90;;;;;;5002766;28;20110;-79
2023/11/10 11:01:57;;;;;;;2.47;1.05;;;7.60;99.90;;;;;;5006274;28;20105;-78
2023/11/10 11:04:42;;;;;;;1.40;1.00;;;7.60;99.90;;;;;;5014125;28;20061;-79
2023/11/10 11:07:27;;;;;;;2.95;1.08;;;7.60;99.90;;;;;;5001891;28;20042;-79
2023/11/10 11:10:20;;;;;;;0.80;0.80;;;7.60;99.90;;;;;;5008107;28;20093;-81
2023/11/10 11:13:18;;;;;;;0.85;0.73;;;7.70;99.90;;;;;;5006210;28;20022;-80
2023/11/10 11:16:10;;;;;;;0.85;0.77;;;7.70;99.90;;;;;;4999549;28;20025;-79
2023/11/10 11:18:42;;;;;;;0.70;0.70;;;7.70;99.90;;;;;;5006071;28;20034;-80
2023/11/10 11:21:09;;;;;;;3.78;0.80;;;7.70;99.90;;;;;;5021865;28;20427;-80
2023/11/10 11:23:38;;;;;;;2.95;0.70;;;7.70;99.90;;;;;;5007370;28;20034;-79
2023/11/10 11:26:05;;;;;;;1.67;0.60;;;7.70;99.90;;;;;;5001707;28;20092;-79
2023/11/10 11:28:36;;;;;;;1.15;0.60;;;7.70;99.90;;;;;;5004726;28;20786;-79
2023/11/10 11:31:11;;;;;;;1.77;0.70;;;7.80;99.90;;;;;;5001583;28;20026;-80
2023/11/10 11:33:47;;;;;;;2.75;0.60;;;7.80;99.90;;;;;;5012471;28;20026;-79
2023/11/10 11:36:17;;;;;;;2.30;0.45;;;7.90;99.90;;;;;;5002678;28;20022;-79
2023/11/10 11:38:43;;;;;;;5.45;0.60;;;7.80;99.90;;;;;;4999219;28;20140;-79
2023/11/10 11:41:11;;;;;;;1.38;0.40;;;7.90;99.90;;;;;;4996989;28;20117;-80
2023/11/10 11:43:53;;;;;;;0.52;0.45;;;7.90;99.90;;;;;;5003458;28;20438;-79
2023/11/10 11:46:19;;;;;;;1.20;0.50;;;7.90;99.90;;;;;;4997973;28;20594;-80
2023/11/10 11:48:45;;;;;;;0.30;0.30;;;8.00;99.90;;;;;;5001760;28;20090;-79
2023/11/10 11:51:12;;;;;;;1.20;0.25;;;8.00;99.90;;;;;;5001669;28;20045;-80
2023/11/10 11:53:37;;;;;;;1.70;0.30;;;8.00;99.90;;;;;;4996647;28;20518;-80
2023/11/10 11:56:04;;;;;;;1.23;0.40;;;8.00;99.90;;;;;;4991308;28;20031;-80
2023/11/10 11:58:30;;;;;;;1.50;0.30;;;8.00;99.90;;;;;;5002388;28;20033;-80
2023/11/10 12:00:57;;;;;;;0.30;0.30;;;8.00;99.90;;;;;;5008701;28;20037;-79
2023/11/10 12:03:23;;;;;;;0.40;0.30;;;8.00;99.90;;;;;;5000070;28;20034;-79
2023/11/10 12:05:49;;;;;;;1.40;0.50;;;8.00;99.90;;;;;;5001238;28;20618;-80
2023/11/10 12:08:16;;;;;;;2.45;0.40;;;8.00;99.90;;;;;;5007250;28;20542;-77
2023/11/10 12:10:45;;;;;;;1.17;0.40;;;8.00;99.90;;;;;;5008345;28;20034;-79
2023/11/10 12:13:14;;;;;;;0.40;0.30;;;8.00;99.90;;;;;;5001127;28;20414;-79
2023/11/10 12:15:43;;;;;;;0.80;0.20;;;8.00;99.90;;;;;;4991049;28;20057;-79
2023/11/10 12:18:10;;;;;;;0.68;0.20;;;8.00;99.90;;;;;;5006004;28;20111;-79
2023/11/10 12:20:36;;;;;;;0.60;0.32;;;8.00;99.90;;;;;;5012911;28;20034;-80
2023/11/10 12:23:06;;;;;;;0.30;0.20;;;8.00;99.90;;;;;;5013490;28;20037;-78
2023/11/10 12:25:38;;;;;;;0.90;0.32;;;7.90;99.90;;;;;;5008771;28;20342;-80
2023/11/10 12:28:09;;;;;;;0.17;0.17;;;7.90;99.90;;;;;;5006300;28;20034;-78
2023/11/10 12:30:34;;;;;;;1.77;0.28;;;7.90;99.90;;;;;;5007489;28;20029;-81
2023/11/10 12:33:02;;;;;;;0.45;0.30;;;7.80;99.90;;;;;;5000501;28;20140;-79
2023/11/10 12:35:28;;;;;;;2.30;0.40;;;7.70;99.90;;;;;;5001901;28;20026;-82
2023/11/10 12:37:54;;;;;;;1.20;0.40;;;7.60;99.90;;;;;;5004851;28;20061;-79
2023/11/10 12:40:22;;;;;;;0.47;0.25;;;7.60;99.90;;;;;;5010338;28;20038;-79
2023/11/10 12:42:48;;;;;;;1.17;0.43;;;7.50;99.90;;;;;;5015050;28;20022;-80
2023/11/10 12:45:16;;;;;;;3.53;0.55;;;7.50;99.90;;;;;;5008508;28;20091;-81
2023/11/10 12:47:47;;;;;;;2.55;0.52;;;7.40;99.90;;;;;;5008533;28;20026;-79
2023/11/10 12:50:22;;;;;;;2.45;0.47;;;7.50;99.90;;;;;;5010950;28;20482;-80
2023/11/10 12:52:52;;;;;;;1.77;0.43;;;7.50;99.90;;;;;;5010803;28;20030;-79
2023/11/10 12:55:19;;;;;;;1.52;0.40;;;7.50;99.90;;;;;;5004117;28;20037;-80
2023/11/10 12:57:47;;;;;;;0.90;0.32;;;7.50;99.90;;;;;;5008301;28;20026;-79